Time;durP1;ratioP1;P1;durP2;ratioP2;P2;SDS_P1;SDS_P2;PMS_P1;PMS_P2;Temp;Humidity;BMP_temperature;BMP_pressure;BME280_temperature;BME280_humidity;BME280_pressure;Samples;Min_cycle;Max_cycle;Signal;HPM_P1;HPM_P2
2022/12/18 00:01:17;;;;;;;4.50;4.40;;;16.20;56.70;;;;;;5080871;28;43460;-70
2022/12/18 00:03:44;;;;;;;4.57;4.37;;;16.20;56.80;;;;;;5087167;28;43447;-70
2022/12/18 00:06:14;;;;;;;4.87;4.67;;;16.20;56.90;;;;;;5088712;28;43863;-71
2022/12/18 00:08:43;;;;;;;4.77;4.57;;;16.30;57.00;;;;;;5084016;28;43994;-73
2022/12/18 00:11:13;;;;;;;4.43;4.33;;;16.40;56.80;;;;;;5086561;28;43320;-70
2022/12/18 00:13:41;;;;;;;5.10;4.90;;;16.40;56.50;;;;;;5082150;28;43429;-71
2022/12/18 00:16:10;;;;;;;4.90;4.70;;;16.40;56.40;;;;;;5081769;28;43864;-71
2022/12/18 00:18:40;;;;;;;5.17;4.97;;;16.40;56.40;;;;;;5086461;28;43406;-71
2022/12/18 00:21:09;;;;;;;4.77;4.57;;;16.30;56.50;;;;;;5088932;28;44104;-73
2022/12/18 00:23:38;;;;;;;4.60;4.43;;;16.30;56.60;;;;;;5083163;28;43389;-71
2022/12/18 00:26:08;;;;;;;4.77;4.57;;;16.30;56.60;;;;;;5087428;28;43619;-72
2022/12/18 00:28:35;;;;;;;4.63;4.43;;;16.30;56.50;;;;;;5086624;28;43430;-70
2022/12/18 00:31:03;;;;;;;4.50;4.37;;;16.30;56.60;;;;;;5088536;28;43444;-71
2022/12/18 00:33:32;;;;;;;5.10;4.90;;;16.30;56.60;;;;;;5088668;28;43565;-70
2022/12/18 00:36:03;;;;;;;4.70;4.50;;;16.30;56.60;;;;;;5086536;28;45434;-71
2022/12/18 00:38:32;;;;;;;4.60;4.50;;;16.30;56.80;;;;;;5086419;28;44670;-71
2022/12/18 00:41:00;;;;;;;4.80;4.60;;;16.30;56.80;;;;;;5081594;28;43501;-70
2022/12/18 00:43:27;;;;;;;5.00;4.80;;;16.20;56.60;;;;;;5087755;28;43374;-71
2022/12/18 00:45:55;;;;;;;5.13;4.93;;;16.30;56.70;;;;;;5087774;28;43908;-70
2022/12/18 00:48:23;;;;;;;4.77;4.57;;;16.30;56.70;;;;;;5088541;28;43354;-74
2022/12/18 00:50:51;;;;;;;5.07;4.87;;;16.20;56.70;;;;;;5108252;28;43562;-70
2022/12/18 00:53:21;;;;;;;4.63;4.47;;;16.20;56.70;;;;;;5109012;28;43458;-71
2022/12/18 00:55:49;;;;;;;5.10;4.90;;;16.20;56.80;;;;;;5108679;28;43841;-71
2022/12/18 00:58:17;;;;;;;4.77;4.63;;;16.20;56.70;;;;;;5108007;28;43340;-70
2022/12/18 01:00:45;;;;;;;5.13;4.93;;;16.20;56.60;;;;;;5108221;28;43529;-70
2022/12/18 01:03:14;;;;;;;5.47;5.27;;;16.20;56.80;;;;;;5090335;28;43420;-73
2022/12/18 01:05:44;;;;;;;5.20;5.00;;;16.20;56.70;;;;;;5090336;28;43839;-70
2022/12/18 01:08:12;;;;;;;4.80;4.70;;;16.20;56.70;;;;;;5085694;28;44999;-72
2022/12/18 01:10:44;;;;;;;5.20;5.00;;;16.20;56.70;;;;;;5089754;28;43515;-71
2022/12/18 01:13:12;;;;;;;5.53;5.33;;;16.20;56.80;;;;;;5108090;27;43554;-71
2022/12/18 01:15:41;;;;;;;5.27;5.07;;;16.20;56.90;;;;;;5089628;28;45416;-70
2022/12/18 01:18:11;;;;;;;5.17;4.97;;;16.30;56.80;;;;;;5084728;28;44481;-69
2022/12/18 01:20:39;;;;;;;5.17;4.97;;;16.40;56.60;;;;;;5102557;28;43420;-72
2022/12/18 01:23:07;;;;;;;5.20;5.00;;;16.40;56.30;;;;;;5105187;28;43359;-71
2022/12/18 01:25:36;;;;;;;5.20;5.00;;;16.40;56.20;;;;;;5089386;28;45572;-71
2022/12/18 01:28:06;;;;;;;4.60;4.50;;;16.40;56.20;;;;;;5085773;28;45124;-70
2022/12/18 01:30:34;;;;;;;5.20;5.00;;;16.40;56.40;;;;;;5107999;28;43439;-71
2022/12/18 01:33:02;;;;;;;5.03;4.83;;;16.30;56.40;;;;;;5107665;28;43474;-70
2022/12/18 01:35:30;;;;;;;5.00;4.80;;;16.30;56.40;;;;;;5106094;28;43892;-70
2022/12/18 01:37:58;;;;;;;5.20;5.00;;;16.30;56.30;;;;;;5107087;28;43391;-70
2022/12/18 01:40:26;;;;;;;4.90;4.70;;;16.30;56.40;;;;;;5088938;28;43522;-72
2022/12/18 01:42:54;;;;;;;5.33;5.13;;;16.30;56.50;;;;;;5089473;28;43665;-73
2022/12/18 01:45:27;;;;;;;5.10;4.90;;;16.30;56.50;;;;;;5088413;28;44069;-75
2022/12/18 01:47:56;;;;;;;5.30;5.10;;;16.30;56.70;;;;;;5107541;28;43344;-72
2022/12/18 01:50:25;;;;;;;5.00;4.80;;;16.20;56.50;;;;;;5103572;28;43367;-75
2022/12/18 01:52:55;;;;;;;5.03;4.83;;;16.20;56.50;;;;;;5105670;28;43400;-75
2022/12/18 01:55:24;;;;;;;5.10;4.90;;;16.20;56.50;;;;;;5106015;27;43666;-72
2022/12/18 01:57:52;;;;;;;5.37;5.17;;;16.20;56.50;;;;;;5087897;28;44877;-70
2022/12/18 02:00:21;;;;;;;5.00;4.80;;;16.20;57.20;;;;;;5089011;28;43409;-71
2022/12/18 02:02:53;;;;;;;5.40;5.17;;;16.20;56.60;;;;;;5089634;28;43547;-70
2022/12/18 02:05:25;;;;;;;6.20;5.90;;;16.20;56.70;;;;;;5087988;28;45913;-70
2022/12/18 02:07:58;;;;;;;5.60;5.40;;;16.20;56.80;;;;;;5088400;28;44589;-74
2022/12/18 02:10:28;;;;;;;5.40;5.20;;;16.30;56.70;;;;;;5083900;28;43428;-71
2022/12/18 02:13:03;;;;;;;5.70;5.50;;;16.30;56.30;;;;;;5089122;28;43437;-71
2022/12/18 02:15:34;;;;;;;5.20;5.00;;;16.30;56.20;;;;;;5087344;28;45639;-72
2022/12/18 02:18:05;;;;;;;5.07;4.87;;;16.30;56.20;;;;;;5087368;28;43562;-70
2022/12/18 02:20:34;;;;;;;5.23;5.03;;;16.30;56.30;;;;;;5107102;28;43424;-70
2022/12/18 02:23:07;;;;;;;5.73;5.43;;;16.30;56.50;;;;;;5089197;28;43508;-72
2022/12/18 02:25:46;;;;;;;5.23;5.03;;;16.30;56.40;;;;;;5088331;28;45428;-70
2022/12/18 02:28:16;;;;;;;5.20;5.03;;;16.30;56.40;;;;;;5106952;28;43349;-73
2022/12/18 02:30:46;;;;;;;5.10;4.90;;;16.30;56.40;;;;;;5087812;28;43409;-70
2022/12/18 02:33:15;;;;;;;5.20;5.10;;;16.30;56.40;;;;;;5088926;28;43419;-71
2022/12/18 02:35:43;;;;;;;4.77;4.67;;;16.30;56.50;;;;;;5087355;28;45333;-70
2022/12/18 02:38:12;;;;;;;5.60;5.40;;;16.20;56.50;;;;;;5082441;28;43431;-72
2022/12/18 02:40:42;;;;;;;4.97;4.77;;;16.20;56.50;;;;;;5088042;28;43584;-73
2022/12/18 02:43:10;;;;;;;5.93;5.63;;;16.20;56.50;;;;;;5088587;28;43515;-71
2022/12/18 02:45:48;;;;;;;5.50;5.30;;;16.20;56.50;;;;;;5087842;28;45716;-70
2022/12/18 02:48:17;;;;;;;4.97;4.77;;;16.20;56.50;;;;;;5099645;28;43348;-73
2022/12/18 02:50:46;;;;;;;5.60;5.40;;;16.20;56.50;;;;;;5081889;28;43439;-73
2022/12/18 02:53:18;;;;;;;5.93;5.63;;;16.20;56.50;;;;;;5088369;28;43454;-70
2022/12/18 02:55:53;;;;;;;6.17;5.87;;;16.20;56.60;;;;;;5087078;28;45679;-70
2022/12/18 02:58:24;;;;;;;5.67;5.47;;;16.20;56.80;;;;;;5088124;28;44028;-70
2022/12/18 03:01:00;;;;;;;5.60;5.40;;;16.20;56.60;;;;;;5087607;28;43511;-71
2022/12/18 03:03:31;;;;;;;6.20;5.90;;;16.30;56.40;;;;;;5087764;28;43408;-71
2022/12/18 03:06:00;;;;;;;5.37;5.17;;;16.40;56.20;;;;;;5087256;28;45267;-70
2022/12/18 03:08:31;;;;;;;5.27;5.07;;;16.40;56.20;;;;;;5087467;28;43495;-70
2022/12/18 03:11:02;;;;;;;5.57;5.37;;;16.30;56.20;;;;;;5088245;28;43378;-70
2022/12/18 03:13:34;;;;;;;5.50;5.30;;;16.30;56.30;;;;;;5102058;28;43939;-72
2022/12/18 03:16:06;;;;;;;5.40;5.20;;;16.30;56.30;;;;;;5087576;28;44084;-71
2022/12/18 03:18:36;;;;;;;5.37;5.17;;;16.30;56.30;;;;;;5084426;28;44635;-70
2022/12/18 03:21:05;;;;;;;5.53;5.33;;;16.30;56.30;;;;;;5088158;28;43385;-70
2022/12/18 03:23:37;;;;;;;5.43;5.23;;;16.30;56.30;;;;;;5087483;28;43431;-71
2022/12/18 03:26:13;;;;;;;5.80;5.50;;;16.20;56.30;;;;;;5081278;28;43989;-71
2022/12/18 03:28:44;;;;;;;5.30;5.10;;;16.20;56.40;;;;;;5087755;28;45014;-69
2022/12/18 03:31:14;;;;;;;5.77;5.47;;;16.20;56.50;;;;;;5087556;28;43380;-70
2022/12/18 03:33:46;;;;;;;5.70;5.50;;;16.20;56.50;;;;;;5088212;28;43973;-72
2022/12/18 03:36:15;;;;;;;5.70;5.40;;;16.20;56.40;;;;;;5087450;28;45797;-70
2022/12/18 03:38:43;;;;;;;5.63;5.33;;;16.20;56.40;;;;;;5105349;28;43482;-69
2022/12/18 03:41:16;;;;;;;5.43;5.17;;;16.20;56.40;;;;;;5087761;28;43387;-71
2022/12/18 03:44:05;;;;;;;5.40;5.10;;;16.20;56.40;;;;;;5099078;28;43434;-71
2022/12/18 03:46:40;;;;;;;6.10;5.80;;;16.20;56.50;;;;;;5086619;28;44057;-69
2022/12/18 03:49:10;;;;;;;5.70;5.50;;;16.20;56.60;;;;;;5106134;28;43395;-72
2022/12/18 03:51:43;;;;;;;5.43;5.23;;;16.20;56.50;;;;;;5087727;28;43439;-71
2022/12/18 03:54:11;;;;;;;5.67;5.47;;;16.20;56.50;;;;;;5087867;28;43364;-70
2022/12/18 03:56:48;;;;;;;5.60;5.33;;;16.20;56.40;;;;;;5085007;28;45686;-69
2022/12/18 03:59:16;;;;;;;5.87;5.57;;;16.20;56.40;;;;;;5087041;28;43396;-71
2022/12/18 04:01:47;;;;;;;5.87;5.57;;;16.20;56.50;;;;;;5087170;28;43344;-71
2022/12/18 04:04:16;;;;;;;6.30;6.00;;;16.10;56.40;;;;;;5087665;28;43704;-71
2022/12/18 04:06:45;;;;;;;6.43;6.13;;;16.10;56.60;;;;;;5087309;28;44207;-75
2022/12/18 04:09:13;;;;;;;6.10;5.80;;;16.20;56.60;;;;;;5105497;28;43406;-72
2022/12/18 04:11:44;;;;;;;6.03;5.83;;;16.30;56.40;;;;;;5087564;28;43374;-70
2022/12/18 04:14:14;;;;;;;5.53;5.33;;;16.30;56.10;;;;;;5087078;28;43515;-69
2022/12/18 04:16:47;;;;;;;5.90;5.60;;;16.30;56.00;;;;;;5086117;27;44045;-70
2022/12/18 04:19:18;;;;;;;5.87;5.67;;;16.30;56.00;;;;;;5089174;28;43417;-72
2022/12/18 04:21:49;;;;;;;6.50;6.10;;;16.30;56.10;;;;;;5090327;28;43451;-72
2022/12/18 04:24:17;;;;;;;5.57;5.37;;;16.30;56.30;;;;;;5106424;28;43380;-71
2022/12/18 04:26:54;;;;;;;5.13;4.93;;;16.30;56.30;;;;;;5083801;28;43934;-73
2022/12/18 04:29:28;;;;;;;5.20;5.00;;;16.30;56.30;;;;;;5102656;28;43311;-70
2022/12/18 04:31:58;;;;;;;5.87;5.57;;;16.20;56.20;;;;;;5090418;28;43383;-71
2022/12/18 04:34:28;;;;;;;6.17;5.87;;;16.20;56.20;;;;;;5088272;28;43357;-72
2022/12/18 04:36:56;;;;;;;5.70;5.50;;;16.20;56.20;;;;;;5089644;28;43832;-70
2022/12/18 04:39:25;;;;;;;6.10;5.80;;;16.20;56.30;;;;;;5088180;28;43480;-71
2022/12/18 04:41:57;;;;;;;5.77;5.57;;;16.20;56.40;;;;;;5089574;28;43420;-70
2022/12/18 04:44:28;;;;;;;6.23;5.93;;;16.20;56.30;;;;;;5090301;28;43373;-70
2022/12/18 04:46:58;;;;;;;5.63;5.43;;;16.20;56.30;;;;;;5108198;28;43853;-70
2022/12/18 04:49:26;;;;;;;5.70;5.50;;;16.20;56.30;;;;;;5089480;28;44646;-69
2022/12/18 04:51:54;;;;;;;5.90;5.70;;;16.20;56.40;;;;;;5107117;28;43345;-73
2022/12/18 04:54:22;;;;;;;6.53;6.23;;;16.20;56.40;;;;;;5108862;28;43459;-71
2022/12/18 04:56:50;;;;;;;5.80;5.60;;;16.10;56.20;;;;;;5108079;28;43850;-70
2022/12/18 04:59:18;;;;;;;6.53;6.17;;;16.10;56.50;;;;;;5107581;28;43414;-69
2022/12/18 05:01:46;;;;;;;5.77;5.53;;;16.20;56.50;;;;;;5108537;28;43435;-70
2022/12/18 05:04:16;;;;;;;6.53;6.23;;;16.30;56.40;;;;;;5108597;28;43590;-71
2022/12/18 05:06:44;;;;;;;6.50;6.10;;;16.30;56.10;;;;;;5107706;28;43815;-70
2022/12/18 05:09:14;;;;;;;5.90;5.70;;;16.30;56.00;;;;;;5106694;28;44023;-70
2022/12/18 05:11:42;;;;;;;6.43;6.13;;;16.30;56.00;;;;;;5108522;28;43383;-70
2022/12/18 05:14:10;;;;;;;6.57;6.17;;;16.20;56.10;;;;;;5089978;28;43485;-70
2022/12/18 05:16:38;;;;;;;5.90;5.60;;;16.20;56.20;;;;;;5105606;28;43544;-70
2022/12/18 05:19:06;;;;;;;6.23;5.93;;;16.20;56.20;;;;;;5089201;28;43407;-70
2022/12/18 05:21:35;;;;;;;5.80;5.60;;;16.20;56.20;;;;;;5104687;28;43435;-70
2022/12/18 05:24:04;;;;;;;5.73;5.53;;;16.20;56.20;;;;;;5087724;28;43469;-69
2022/12/18 05:26:32;;;;;;;6.47;6.17;;;16.20;56.20;;;;;;5107953;28;43787;-69
2022/12/18 05:29:00;;;;;;;5.73;5.53;;;16.20;56.20;;;;;;5107428;27;43357;-70
2022/12/18 05:31:28;;;;;;;6.37;6.07;;;16.20;56.30;;;;;;5089226;28;43380;-71
2022/12/18 05:33:57;;;;;;;6.00;5.70;;;16.10;56.20;;;;;;5106747;28;43480;-69
2022/12/18 05:36:24;;;;;;;5.97;5.73;;;16.20;56.30;;;;;;5086059;28;45721;-70
2022/12/18 05:38:54;;;;;;;6.00;5.70;;;16.20;56.20;;;;;;5107673;28;43506;-73
2022/12/18 05:41:22;;;;;;;5.50;5.30;;;16.20;56.30;;;;;;5089897;28;43427;-71
2022/12/18 05:43:50;;;;;;;6.67;6.37;;;16.20;56.20;;;;;;5108206;28;43350;-72
2022/12/18 05:46:18;;;;;;;6.13;5.83;;;16.20;56.20;;;;;;5108400;28;43788;-71
2022/12/18 05:48:46;;;;;;;6.23;5.93;;;16.20;56.20;;;;;;5088297;28;45125;-70
2022/12/18 05:51:15;;;;;;;6.67;6.33;;;16.20;56.40;;;;;;5088934;28;43419;-70
2022/12/18 05:53:43;;;;;;;5.93;5.63;;;16.20;56.90;;;;;;5107497;28;43811;-71
2022/12/18 05:56:14;;;;;;;6.53;6.17;;;16.30;56.00;;;;;;5089047;28;45578;-71
2022/12/18 05:58:42;;;;;;;5.90;5.60;;;16.30;55.80;;;;;;5106954;28;43411;-69
2022/12/18 06:01:11;;;;;;;6.20;5.80;;;16.40;55.80;;;;;;5107512;28;43597;-70
2022/12/18 06:03:39;;;;;;;5.80;5.60;;;16.40;55.80;;;;;;5089398;28;43439;-70
2022/12/18 06:06:14;;;;;;;6.07;5.77;;;16.30;55.70;;;;;;5088582;28;45358;-70
2022/12/18 06:08:42;;;;;;;6.10;5.80;;;16.30;55.90;;;;;;5088072;28;44903;-71
2022/12/18 06:11:17;;;;;;;6.20;5.90;;;16.30;55.90;;;;;;5088869;28;43545;-71
2022/12/18 06:13:45;;;;;;;5.80;5.60;;;16.30;55.80;;;;;;5107270;28;43564;-71
2022/12/18 06:16:13;;;;;;;6.47;6.17;;;16.30;55.90;;;;;;5106611;28;43836;-70
2022/12/18 06:18:41;;;;;;;5.97;5.77;;;16.30;55.90;;;;;;5104136;28;43479;-72
2022/12/18 06:21:09;;;;;;;6.17;5.87;;;16.30;56.00;;;;;;5106300;28;43479;-72
2022/12/18 06:23:37;;;;;;;6.00;5.70;;;16.20;56.00;;;;;;5107378;28;43495;-70
2022/12/18 06:26:06;;;;;;;6.30;6.00;;;16.20;56.10;;;;;;5105670;28;43873;-71
2022/12/18 06:28:36;;;;;;;5.80;5.50;;;16.20;56.00;;;;;;5083771;28;43606;-70
2022/12/18 06:31:04;;;;;;;5.97;5.67;;;16.20;56.10;;;;;;5105505;28;43394;-72
2022/12/18 06:33:32;;;;;;;5.83;5.53;;;16.20;56.10;;;;;;5105390;28;43505;-72
2022/12/18 06:36:01;;;;;;;6.50;6.20;;;16.20;56.10;;;;;;5106426;28;43603;-72
2022/12/18 06:38:29;;;;;;;6.20;5.90;;;16.20;56.80;;;;;;5105994;28;43369;-70
2022/12/18 06:40:57;;;;;;;6.53;6.23;;;16.20;56.10;;;;;;5087076;28;43554;-71
2022/12/18 06:43:25;;;;;;;5.90;5.70;;;16.20;57.10;;;;;;5088253;28;43638;-74
2022/12/18 06:46:01;;;;;;;5.83;5.57;;;16.20;56.30;;;;;;5106257;28;43914;-73
2022/12/18 06:48:29;;;;;;;6.27;5.97;;;16.20;56.00;;;;;;5087932;28;43681;-70
2022/12/18 06:50:57;;;;;;;5.60;5.40;;;16.30;55.90;;;;;;5088410;28;43498;-69
2022/12/18 06:53:25;;;;;;;6.13;5.83;;;16.30;55.90;;;;;;5106984;28;43462;-72
2022/12/18 06:55:54;;;;;;;5.80;5.50;;;16.30;55.90;;;;;;5101426;28;43787;-75
2022/12/18 06:58:22;;;;;;;6.40;6.07;;;16.20;55.90;;;;;;5086873;28;43429;-70
2022/12/18 07:00:50;;;;;;;6.10;5.80;;;16.20;56.00;;;;;;5083665;28;43483;-70
2022/12/18 07:03:19;;;;;;;6.10;5.80;;;16.20;56.00;;;;;;5106353;28;43368;-71
2022/12/18 07:05:47;;;;;;;6.20;5.90;;;16.20;56.00;;;;;;5105690;28;43682;-71
2022/12/18 07:08:15;;;;;;;5.97;5.67;;;16.20;56.00;;;;;;5100097;28;43506;-73
2022/12/18 07:10:43;;;;;;;5.87;5.57;;;16.20;56.00;;;;;;5106021;28;43412;-71
2022/12/18 07:13:15;;;;;;;6.20;5.90;;;16.20;56.00;;;;;;5103771;28;43414;-72
2022/12/18 07:15:43;;;;;;;6.10;5.80;;;16.20;56.10;;;;;;5105837;28;43897;-72
2022/12/18 07:18:12;;;;;;;6.00;5.70;;;16.20;56.20;;;;;;5084032;28;43417;-70
2022/12/18 07:20:41;;;;;;;6.10;5.80;;;16.20;56.10;;;;;;5104827;28;43450;-73
2022/12/18 07:23:09;;;;;;;5.93;5.63;;;16.30;55.90;;;;;;5106748;27;43468;-70
2022/12/18 07:25:37;;;;;;;5.33;5.13;;;16.30;55.90;;;;;;5091362;28;45703;-70
2022/12/18 07:28:05;;;;;;;5.80;5.50;;;16.30;55.90;;;;;;5104836;28;43426;-72
2022/12/18 07:30:33;;;;;;;5.60;5.40;;;16.20;55.80;;;;;;5104928;28;43536;-70
2022/12/18 07:33:01;;;;;;;5.90;5.70;;;16.20;56.00;;;;;;5105828;28;43342;-70
2022/12/18 07:35:29;;;;;;;6.07;5.77;;;16.20;56.00;;;;;;5102567;28;43927;-70
2022/12/18 07:38:02;;;;;;;5.77;5.50;;;16.20;55.90;;;;;;5089567;28;44563;-72
2022/12/18 07:40:30;;;;;;;5.37;5.17;;;16.20;56.00;;;;;;5091741;28;43441;-70
2022/12/18 07:42:58;;;;;;;6.17;5.87;;;16.20;56.00;;;;;;5105552;28;43401;-72
2022/12/18 07:45:26;;;;;;;6.00;5.77;;;16.20;56.00;;;;;;5092777;28;45493;-72
2022/12/18 07:47:57;;;;;;;6.50;6.20;;;16.20;56.10;;;;;;5086820;28;44602;-71
2022/12/18 07:50:25;;;;;;;5.87;5.67;;;16.10;56.00;;;;;;5092100;28;43565;-71
2022/12/18 07:52:52;;;;;;;5.67;5.43;;;16.10;56.00;;;;;;5098307;27;43392;-73
2022/12/18 07:55:22;;;;;;;5.93;5.70;;;16.10;56.00;;;;;;5089860;28;45821;-71
2022/12/18 07:57:50;;;;;;;6.17;5.87;;;16.10;56.00;;;;;;5091625;28;44985;-70
2022/12/18 08:00:22;;;;;;;5.87;5.57;;;16.10;56.00;;;;;;5092890;28;43443;-70
2022/12/18 08:02:50;;;;;;;5.70;5.40;;;16.10;56.00;;;;;;5109630;28;43798;-71
2022/12/18 08:05:18;;;;;;;5.50;5.30;;;16.10;56.00;;;;;;5108573;28;43705;-72
2022/12/18 08:07:46;;;;;;;6.33;6.03;;;16.10;56.10;;;;;;5105420;27;43488;-70
2022/12/18 08:10:14;;;;;;;5.80;5.50;;;16.10;56.30;;;;;;5093009;28;44128;-71
2022/12/18 08:12:43;;;;;;;6.43;6.13;;;16.20;56.20;;;;;;5108453;28;43601;-71
2022/12/18 08:15:11;;;;;;;5.80;5.60;;;16.30;56.00;;;;;;5108348;28;43845;-71
2022/12/18 08:17:39;;;;;;;5.50;5.30;;;16.30;55.70;;;;;;5094624;28;43360;-70
2022/12/18 08:20:09;;;;;;;5.70;5.40;;;16.30;55.60;;;;;;5108729;28;43859;-71
2022/12/18 08:22:38;;;;;;;6.47;6.17;;;16.30;56.30;;;;;;5093990;28;43519;-70
2022/12/18 08:25:07;;;;;;;6.57;6.27;;;16.30;55.80;;;;;;5093516;28;45649;-71
2022/12/18 08:27:35;;;;;;;6.10;5.83;;;16.30;55.90;;;;;;5095303;28;44388;-70
2022/12/18 08:30:06;;;;;;;5.73;5.53;;;16.20;55.80;;;;;;5099167;28;43455;-70
2022/12/18 08:32:34;;;;;;;5.87;5.67;;;16.20;55.80;;;;;;5108628;28;43437;-73
2022/12/18 08:35:02;;;;;;;6.13;5.83;;;16.20;55.80;;;;;;5107863;28;43771;-69
2022/12/18 08:37:30;;;;;;;5.73;5.53;;;16.20;55.90;;;;;;5107536;28;43425;-71
2022/12/18 08:39:58;;;;;;;5.33;5.13;;;16.20;56.00;;;;;;5097176;28;43390;-71
2022/12/18 08:45:12;;;;;;;5.57;5.37;;;16.10;56.00;;;;;;5102754;28;43854;-71
2022/12/18 08:47:40;;;;;;;6.00;5.70;;;16.10;56.00;;;;;;5090824;28;44451;-70
2022/12/18 08:50:11;;;;;;;5.67;5.47;;;16.10;56.00;;;;;;5106176;28;43505;-71
2022/12/18 08:52:38;;;;;;;5.90;5.70;;;16.10;56.00;;;;;;5107315;28;43446;-72
2022/12/18 08:55:08;;;;;;;5.93;5.63;;;16.10;56.00;;;;;;5107829;28;43843;-70
2022/12/18 08:57:36;;;;;;;5.60;5.30;;;16.10;56.00;;;;;;5091713;28;44581;-72
2022/12/18 09:00:04;;;;;;;6.03;5.73;;;16.10;56.10;;;;;;5102628;27;43837;-70
2022/12/18 09:02:34;;;;;;;6.17;5.87;;;16.10;56.10;;;;;;5107703;27;43414;-70
2022/12/18 09:05:02;;;;;;;6.20;5.90;;;16.10;56.00;;;;;;5090494;27;46157;-71
2022/12/18 09:07:30;;;;;;;6.03;5.73;;;16.10;56.00;;;;;;5107466;27;43405;-72
2022/12/18 09:09:58;;;;;;;5.87;5.67;;;16.10;56.10;;;;;;5107220;27;43441;-70
2022/12/18 09:12:26;;;;;;;5.60;5.30;;;16.10;56.10;;;;;;5090183;28;43897;-72
2022/12/18 09:14:54;;;;;;;6.30;6.00;;;16.10;56.10;;;;;;5106635;27;43857;-72
2022/12/18 09:17:22;;;;;;;5.80;5.50;;;16.10;56.10;;;;;;5085767;28;43341;-71
2022/12/18 09:19:51;;;;;;;6.17;5.87;;;16.10;56.30;;;;;;5107383;28;43407;-70
2022/12/18 09:22:19;;;;;;;5.83;5.53;;;16.10;56.30;;;;;;5087229;28;43598;-71
2022/12/18 09:24:47;;;;;;;5.80;5.60;;;16.20;56.10;;;;;;5107351;27;43935;-72
2022/12/18 09:27:15;;;;;;;5.80;5.53;;;16.30;55.80;;;;;;5107572;27;43454;-71
2022/12/18 09:29:43;;;;;;;5.40;5.20;;;16.30;55.70;;;;;;5094569;28;44153;-71
2022/12/18 09:32:11;;;;;;;5.50;5.30;;;16.30;55.70;;;;;;5088591;28;44052;-72
2022/12/18 09:34:44;;;;;;;6.03;5.73;;;16.30;55.90;;;;;;5106972;28;43562;-70
2022/12/18 09:37:13;;;;;;;5.60;5.40;;;16.20;55.90;;;;;;5103394;27;43780;-70
2022/12/18 09:39:41;;;;;;;5.60;5.40;;;16.20;55.80;;;;;;5107195;27;43543;-69
2022/12/18 09:42:10;;;;;;;5.93;5.70;;;16.20;55.90;;;;;;5108049;27;43410;-71
2022/12/18 09:44:42;;;;;;;5.03;4.83;;;16.20;56.00;;;;;;5088774;27;45382;-71
2022/12/18 09:47:14;;;;;;;6.20;5.90;;;16.10;55.90;;;;;;5106670;28;43800;-70
2022/12/18 09:49:43;;;;;;;5.60;5.40;;;16.10;56.00;;;;;;5106921;28;43593;-70
2022/12/18 09:52:16;;;;;;;5.83;5.63;;;16.10;56.10;;;;;;5107114;28;43383;-70
2022/12/18 09:54:46;;;;;;;5.47;5.27;;;16.10;56.80;;;;;;5106395;27;43844;-70
2022/12/18 09:57:15;;;;;;;5.27;5.07;;;16.10;56.10;;;;;;5088244;28;44603;-72
2022/12/18 09:59:47;;;;;;;5.67;5.47;;;16.10;56.10;;;;;;5106899;27;43501;-71
2022/12/18 10:02:16;;;;;;;5.37;5.17;;;16.10;56.10;;;;;;5106326;28;43384;-70
2022/12/18 10:04:44;;;;;;;5.73;5.50;;;16.10;56.10;;;;;;5102907;27;43702;-72
2022/12/18 10:07:16;;;;;;;5.93;5.70;;;16.10;56.20;;;;;;5105073;27;43366;-71
2022/12/18 10:09:45;;;;;;;5.60;5.40;;;16.10;56.30;;;;;;5104437;27;43357;-71
2022/12/18 10:12:15;;;;;;;5.80;5.50;;;16.10;56.20;;;;;;5103653;27;43428;-72
2022/12/18 10:14:47;;;;;;;6.30;6.00;;;16.10;56.30;;;;;;5084273;27;45710;-71
2022/12/18 10:17:19;;;;;;;5.97;5.67;;;16.10;56.20;;;;;;5083079;27;45056;-70
2022/12/18 10:19:50;;;;;;;5.53;5.33;;;16.10;56.20;;;;;;5088980;27;43406;-70
2022/12/18 10:22:38;;;;;;;5.37;5.17;;;16.10;56.30;;;;;;5085526;28;43520;-70
2022/12/18 10:25:11;;;;;;;6.13;5.83;;;16.10;56.20;;;;;;5106547;27;43801;-72
2022/12/18 10:27:39;;;;;;;6.03;5.73;;;16.10;56.30;;;;;;5106781;27;43422;-71
2022/12/18 10:30:12;;;;;;;6.50;6.20;;;16.10;56.40;;;;;;5105367;27;43476;-71
2022/12/18 10:32:40;;;;;;;6.70;6.40;;;16.20;56.30;;;;;;5101471;27;43455;-71
2022/12/18 10:35:10;;;;;;;6.27;5.97;;;16.20;56.00;;;;;;5100399;28;43809;-70
2022/12/18 10:37:40;;;;;;;5.90;5.60;;;16.20;55.80;;;;;;5106512;27;43488;-71
2022/12/18 10:40:11;;;;;;;5.83;5.53;;;16.20;55.80;;;;;;5104772;27;43456;-71
2022/12/18 10:43:06;;;;;;;6.50;6.20;;;16.20;55.90;;;;;;5106811;27;43926;-70
2022/12/18 10:45:34;;;;;;;6.40;6.10;;;16.20;56.10;;;;;;5105184;28;43755;-72
2022/12/18 10:48:02;;;;;;;5.40;5.20;;;16.20;56.00;;;;;;5106591;28;43823;-73
2022/12/18 10:50:32;;;;;;;6.00;5.70;;;16.20;56.00;;;;;;5087866;28;43449;-70
2022/12/18 10:53:23;;;;;;;6.10;5.80;;;16.20;56.10;;;;;;5087624;28;43499;-71
2022/12/18 10:55:52;;;;;;;6.07;5.77;;;16.20;56.10;;;;;;5106119;27;43882;-69
2022/12/18 10:58:25;;;;;;;5.53;5.33;;;16.10;56.10;;;;;;5105748;28;43455;-70
2022/12/18 11:01:12;;;;;;;6.40;6.00;;;16.10;56.00;;;;;;5092128;27;43441;-75
2022/12/18 11:03:41;;;;;;;6.37;6.07;;;16.10;56.20;;;;;;5107424;27;43570;-72
2022/12/18 11:06:10;;;;;;;6.10;5.80;;;16.10;56.20;;;;;;5106512;27;43815;-72
2022/12/18 11:08:40;;;;;;;6.17;5.87;;;16.10;56.20;;;;;;5105755;27;43359;-71
2022/12/18 11:11:15;;;;;;;6.30;6.00;;;16.10;56.20;;;;;;5105099;28;43427;-70
2022/12/18 11:13:56;;;;;;;6.90;6.50;;;16.10;56.20;;;;;;5105753;28;43466;-73
2022/12/18 11:16:24;;;;;;;6.20;5.90;;;16.10;56.20;;;;;;5086158;28;45327;-71
2022/12/18 11:18:52;;;;;;;6.87;6.47;;;16.10;56.30;;;;;;5103392;28;43371;-75
2022/12/18 11:21:20;;;;;;;6.70;6.37;;;16.10;56.30;;;;;;5105874;27;43395;-70
2022/12/18 11:23:51;;;;;;;6.40;6.10;;;16.10;56.30;;;;;;5106369;27;43438;-71
2022/12/18 11:26:19;;;;;;;6.30;6.00;;;16.20;56.00;;;;;;5087495;27;45363;-71
2022/12/18 11:28:48;;;;;;;5.83;5.63;;;16.30;55.90;;;;;;5109077;28;43430;-71
2022/12/18 11:31:24;;;;;;;6.00;5.80;;;16.30;55.90;;;;;;5090780;28;43523;-73
2022/12/18 11:34:00;;;;;;;6.83;6.53;;;16.30;55.90;;;;;;5110510;27;43771;-72
2022/12/18 11:36:48;;;;;;;6.83;6.33;;;16.20;56.00;;;;;;5109833;27;43824;-72
2022/12/18 11:39:19;;;;;;;7.17;6.50;;;16.20;56.00;;;;;;5091134;28;44384;-70
2022/12/18 11:42:11;;;;;;;6.87;6.27;;;16.20;56.00;;;;;;5090838;28;43716;-70
2022/12/18 11:44:43;;;;;;;6.50;6.10;;;16.20;56.00;;;;;;5091163;28;43907;-70
2022/12/18 11:47:14;;;;;;;6.80;6.40;;;16.20;56.10;;;;;;5090573;28;44067;-70
2022/12/18 11:49:42;;;;;;;6.47;6.17;;;16.20;56.10;;;;;;5091268;28;43889;-69
2022/12/18 11:52:16;;;;;;;7.00;6.60;;;16.10;56.70;;;;;;5108860;27;43474;-72
2022/12/18 11:54:45;;;;;;;7.00;6.60;;;16.10;56.20;;;;;;5107486;28;43467;-72
2022/12/18 11:57:23;;;;;;;6.57;6.13;;;16.10;56.20;;;;;;5102952;27;43621;-70
2022/12/18 11:59:53;;;;;;;6.70;6.40;;;16.10;56.20;;;;;;5111053;27;43454;-72
2022/12/18 12:02:33;;;;;;;6.63;6.33;;;16.10;56.20;;;;;;5091565;28;43487;-72
2022/12/18 12:05:19;;;;;;;6.87;6.47;;;16.10;56.20;;;;;;5091021;28;43466;-70
2022/12/18 12:07:49;;;;;;;7.13;6.73;;;16.10;56.30;;;;;;5089174;28;45728;-71
2022/12/18 12:10:30;;;;;;;7.10;6.40;;;16.10;56.20;;;;;;5108051;28;43564;-71
2022/12/18 12:13:10;;;;;;;6.93;6.53;;;16.10;56.30;;;;;;5107283;27;43829;-71
2022/12/18 12:15:42;;;;;;;7.47;6.77;;;16.10;56.30;;;;;;5090120;28;43399;-70
2022/12/18 12:18:16;;;;;;;7.13;6.73;;;16.10;56.20;;;;;;5103136;28;43913;-69
2022/12/18 12:20:50;;;;;;;7.40;6.93;;;16.10;56.30;;;;;;5090500;28;44493;-70
2022/12/18 12:23:23;;;;;;;6.47;6.13;;;16.10;56.30;;;;;;5087889;28;43849;-70
2022/12/18 12:25:58;;;;;;;7.47;6.97;;;16.10;56.30;;;;;;5109321;28;43453;-73
2022/12/18 12:28:35;;;;;;;6.73;6.43;;;16.10;56.30;;;;;;5108820;27;44038;-73
2022/12/18 12:31:06;;;;;;;7.40;7.00;;;16.10;56.40;;;;;;5103422;27;44921;-72
2022/12/18 12:33:38;;;;;;;7.70;7.20;;;16.10;56.40;;;;;;5089871;28;43447;-71
2022/12/18 12:36:10;;;;;;;7.37;6.97;;;16.20;56.20;;;;;;5091647;28;43542;-69
2022/12/18 12:38:42;;;;;;;7.30;6.90;;;16.20;55.90;;;;;;5107250;27;43938;-70
2022/12/18 12:44:07;;;;;;;7.40;6.90;;;16.20;55.80;;;;;;5108768;27;43429;-71
2022/12/18 12:46:36;;;;;;;7.57;7.17;;;16.20;56.00;;;;;;5107643;27;43645;-70
2022/12/18 12:49:06;;;;;;;7.47;6.97;;;16.20;56.10;;;;;;5107253;27;43682;-71
2022/12/18 12:51:35;;;;;;;7.53;7.03;;;16.20;56.00;;;;;;5105956;28;43380;-73
2022/12/18 12:54:05;;;;;;;7.10;6.70;;;16.20;56.10;;;;;;5108402;28;43387;-72
2022/12/18 12:56:38;;;;;;;6.97;6.57;;;16.20;56.10;;;;;;5095094;28;43596;-71
2022/12/18 12:59:12;;;;;;;7.33;6.90;;;16.10;56.10;;;;;;5089387;28;45622;-71
2022/12/18 13:01:42;;;;;;;7.03;6.63;;;16.10;56.20;;;;;;5108246;27;43481;-72
2022/12/18 13:04:16;;;;;;;7.43;7.03;;;16.10;56.30;;;;;;5089275;28;43377;-70
2022/12/18 13:06:46;;;;;;;6.93;6.63;;;16.10;56.30;;;;;;5103469;27;43409;-71
2022/12/18 13:09:15;;;;;;;6.83;6.47;;;16.10;56.30;;;;;;5103577;28;43855;-72